Am Liberia — 3FAI7 — position and weather

sailwx.info

Track history (hours):
 
Tides and Currents Weather Stations Pressure Air Temp Water Temp Dewpoint Dewpoint Depression Visibility Wind Speed Wind Dir Waves Ship Positions

Am Liberia

Last reported at 2017-Oct-18 08:18 UTC. Time now 2017-Oct-18 15:10 UTC.
Position N 35°03' E 015°47'.

Length 240 m; draft 14.5 m.

Type: Cargo ship. MMSI: 352593000.

Date/timePositionNaut miles runAvg speedWind from/ knotsBaromVisibWave heightAir tempDewpointWater temp
2017-Oct-18 08:18N 35°03' E 015°47'612.3
2017-Oct-18 07:47N 35°04' E 015°39'312.4
2017-Oct-18 07:30N 35°05' E 015°35'1112.9
2017-Oct-18 06:38N 35°08' E 015°22'313.8
2017-Oct-18 06:24N 35°08' E 015°18'512.9
2017-Oct-18 05:59N 35°09' E 015°12'612.7
2017-Oct-18 05:30N 35°11' E 015°04'2212.5
2017-Oct-18 03:45N 35°15' E 014°38'2812.4
2017-Oct-18 01:28N 35°22' E 014°04'1611.4
2017-Oct-18 00:06N 35°31' E 013°49'112.5
2017-Oct-18 00:00N 35°32' E 013°49'1612.4
2017-Oct-17 22:42N 35°46' E 013°38'212.2
2017-Oct-17 22:30N 35°48' E 013°36'1312.8
2017-Oct-17 21:27N 35°57' E 013°24'812.2
2017-Oct-17 20:48N 36°03' E 013°17'712.2
2017-Oct-17 20:12N 36°08' E 013°11'212.3
2017-Oct-17 20:00N 36°10' E 013°09'612.1
2017-Oct-17 19:30N 36°15' E 013°04'612.1
2017-Oct-17 19:00N 36°19' E 012°60'612.0
2017-Oct-17 18:30N 36°24' E 012°55'612.0
2017-Oct-17 18:00N 36°29' E 012°51'611.9
2017-Oct-17 17:30N 36°34' E 012°46'611.9
2017-Oct-17 17:00N 36°38' E 012°41'712.1
2017-Oct-17 16:25N 36°44' E 012°36'712.0
2017-Oct-17 15:51N 36°49' E 012°30'411.7
2017-Oct-17 15:30N 36°51' E 012°26'612.1
2017-Oct-17 15:00N 36°53' E 012°19'712.4
2017-Oct-17 14:27N 36°57' E 012°11'13912.4
2017-Oct-17 03:15N 37°44' E 009°28'27812.0
2017-Oct-16 04:07N 37°32' E 003°37'211.5
2017-Oct-16 03:59N 37°32' E 003°35'2011.5
2017-Oct-16 02:15N 37°27' E 003°11'311.3
2017-Oct-16 02:00N 37°26' E 003°07'611.2
2017-Oct-16 01:29N 37°25' E 003°00'711.2
2017-Oct-16 00:54N 37°23' E 002°52'511.4
2017-Oct-16 00:30N 37°23' E 002°46'611.3
2017-Oct-16 00:00N 37°21' E 002°40'7211.1
2017-Oct-15 17:32N 37°04' E 001°12'011.2
2017-Oct-15 17:30N 37°04' E 001°12'1710.9
2017-Oct-15 15:56N 36°59' E 000°51'1511.0
2017-Oct-15 14:36N 36°56' E 000°33'810.8
2017-Oct-15 13:50N 36°53' E 000°23'4711.2
2017-Oct-15 09:37N 36°34' W 000°31'111.3
2017-Oct-15 09:30N 36°34' W 000°32'611.3
2017-Oct-15 08:58N 36°31' W 000°39'511.2
2017-Oct-15 08:30N 36°29' W 000°45'1211.3
2017-Oct-15 07:28N 36°25' W 000°59'711.6
2017-Oct-15 06:52N 36°23' W 001°07'411.7
2017-Oct-15 06:30N 36°21' W 001°12'611.7
2017-Oct-15 06:00N 36°18' W 001°18'611.7
2017-Oct-15 05:29N 36°16' W 001°25'611.6
2017-Oct-15 04:55N 36°14' W 001°33'511.6
2017-Oct-15 04:30N 36°13' W 001°39'811.7
2017-Oct-15 03:48N 36°13' W 001°49'15711.9
2017-Oct-14 14:41N 36°03' W 005°02'212.8
2017-Oct-14 14:30N 36°03' W 005°05'612.6
2017-Oct-14 14:00N 36°03' W 005°13'611.8
2017-Oct-14 13:30N 36°04' W 005°20'4 7.1
2017-Oct-14 13:00N 36°07' W 005°23'1 0.2
2017-Oct-14 10:05N 36°07' W 005°22'0 0.1
2017-Oct-14 09:59N 36°07' W 005°22'0 0.2
2017-Oct-14 09:29N 36°07' W 005°22'0 0.0
2017-Oct-14 08:59N 36°07' W 005°22'0 0.0
2017-Oct-14 07:02N 36°07' W 005°22'0 0.5
2017-Oct-14 06:47N 36°07' W 005°22'0 0.1
2017-Oct-14 04:44N 36°07' W 005°22'0 0.0
2017-Oct-14 04:26N 36°07' W 005°22'0 0.0
2017-Oct-14 03:44N 36°07' W 005°22'0 0.1
2017-Oct-14 03:17N 36°07' W 005°22'0 0.1
2017-Oct-14 02:53N 36°07' W 005°22'0 0.1
2017-Oct-14 02:23N 36°07' W 005°22'0 0.1
2017-Oct-14 01:59N 36°07' W 005°22'0 0.0
2017-Oct-14 01:26N 36°07' W 005°22'0 0.0
2017-Oct-14 00:59N 36°07' W 005°22'0 0.0
2017-Oct-14 00:17N 36°07' W 005°22'0 0.0
2017-Oct-13 23:14N 36°07' W 005°22'0 0.2
2017-Oct-13 22:53N 36°07' W 005°22'0 1.1
2017-Oct-13 22:30N 36°06' W 005°22'2 3.7
2017-Oct-13 22:00N 36°05' W 005°20'2 3.9
2017-Oct-13 21:29N 36°05' W 005°18'1 3.1
2017-Oct-13 21:00N 36°05' W 005°16'1 1.5
2017-Oct-13 20:30N 36°06' W 005°15'2 4.2
2017-Oct-13 20:00N 36°06' W 005°13'3 4.3
2017-Oct-13 19:18N 36°06' W 005°09'412.1
2017-Oct-13 19:00N 36°04' W 005°12'612.5
2017-Oct-13 18:30N 35°60' W 005°18'612.6
2017-Oct-13 18:00N 35°58' W 005°26'1611.5
2017-Oct-13 16:37N 35°55' W 005°45'410.8
2017-Oct-13 16:16N 35°54' W 005°49'5212.0
2017-Oct-13 11:55N 35°54' W 006°54'511.6
2017-Oct-13 11:30N 35°53' W 007°00'611.4
2017-Oct-13 11:00N 35°53' W 007°07'611.7
2017-Oct-13 10:28N 35°53' W 007°15'612.3
2017-Oct-13 10:00N 35°53' W 007°22'611.9
2017-Oct-13 09:30N 35°52' W 007°29'812.0
2017-Oct-13 08:52N 35°51' W 007°38'1811.4
2017-Oct-13 07:15N 35°53' W 008°01'411.3
2017-Oct-13 06:56N 35°53' W 008°05'811.4
2017-Oct-13 06:15N 35°53' W 008°15'411.8
2017-Oct-13 05:56N 35°53' W 008°20'711.9
2017-Oct-13 05:22N 35°53' W 008°28'712.1
2017-Oct-13 04:46N 35°52' W 008°37'311.5
2017-Oct-13 04:28N 35°52' W 008°41'611.8
2017-Oct-13 04:00N 35°52' W 008°48'712.0
2017-Oct-13 03:25N 35°52' W 008°57'611.8
2017-Oct-13 02:52N 35°52' W 009°05'611.9
2017-Oct-13 02:24N 35°52' W 009°12'612.3
2017-Oct-13 01:55N 35°52' W 009°19'512.2
2017-Oct-13 01:29N 35°51' W 009°25'1511.7
2017-Oct-13 00:10N 35°50' W 009°44'212.0
2017-Oct-13 00:00N 35°51' W 009°47'3511.7
2017-Oct-12 21:02N 35°50' W 010°30'30812.0
2017-Oct-11 19:26N 37°28' W 016°33'911.7
2017-Oct-11 18:41N 37°31' W 016°44'811.5
2017-Oct-11 17:57N 37°34' W 016°54'611.5
2017-Oct-11 17:24N 37°36' W 017°02'511.6
2017-Oct-11 17:00N 37°37' W 017°07'54911.9
2017-Oct-09 18:43N 39°43' W 028°31'1112.1
2017-Oct-09 17:50N 39°47' W 028°45'8911.9
2017-Oct-09 10:21N 39°54' W 030°40'411.7
2017-Oct-09 10:00N 39°55' W 030°46'611.7
2017-Oct-09 09:30N 39°56' W 030°53'712.0
2017-Oct-09 08:57N 39°58' W 031°01'613.1
2017-Oct-09 08:31N 39°59' W 031°09'612.0
2017-Oct-09 08:00N 39°59' W 031°17'611.9
2017-Oct-09 07:30N 39°59' W 031°24'712.3
2017-Oct-09 06:54N 39°59' W 031°34'512.3
2017-Oct-09 06:31N 39°60' W 031°40'  
Track history (hours):
 
Tides and Currents Weather Stations Pressure Air Temp Water Temp Dewpoint Dewpoint Depression Visibility Wind Speed Wind Dir Waves Ship Positions

Am Liberia

Last reported at 2017-Oct-18 08:18 UTC. Time now 2017-Oct-18 15:10 UTC.
Position N 35°03' E 015°47'.

Length 240 m; draft 14.5 m.

Type: Cargo ship. MMSI: 352593000.

Date/timePositionNaut miles runAvg speedWind from/ knotsBaromVisibWave heightAir tempDewpointWater temp
2017-Oct-18 08:18N 35°03' E 015°47'612.3
2017-Oct-18 07:47N 35°04' E 015°39'312.4
2017-Oct-18 07:30N 35°05' E 015°35'1112.9
2017-Oct-18 06:38N 35°08' E 015°22'313.8
2017-Oct-18 06:24N 35°08' E 015°18'512.9
2017-Oct-18 05:59N 35°09' E 015°12'612.7
2017-Oct-18 05:30N 35°11' E 015°04'2212.5
2017-Oct-18 03:45N 35°15' E 014°38'2812.4
2017-Oct-18 01:28N 35°22' E 014°04'1611.4
2017-Oct-18 00:06N 35°31' E 013°49'112.5
2017-Oct-18 00:00N 35°32' E 013°49'1612.4
2017-Oct-17 22:42N 35°46' E 013°38'212.2
2017-Oct-17 22:30N 35°48' E 013°36'1312.8
2017-Oct-17 21:27N 35°57' E 013°24'812.2
2017-Oct-17 20:48N 36°03' E 013°17'712.2
2017-Oct-17 20:12N 36°08' E 013°11'212.3
2017-Oct-17 20:00N 36°10' E 013°09'612.1
2017-Oct-17 19:30N 36°15' E 013°04'612.1
2017-Oct-17 19:00N 36°19' E 012°60'612.0
2017-Oct-17 18:30N 36°24' E 012°55'612.0
2017-Oct-17 18:00N 36°29' E 012°51'611.9
2017-Oct-17 17:30N 36°34' E 012°46'611.9
2017-Oct-17 17:00N 36°38' E 012°41'712.1
2017-Oct-17 16:25N 36°44' E 012°36'712.0
2017-Oct-17 15:51N 36°49' E 012°30'411.7
2017-Oct-17 15:30N 36°51' E 012°26'612.1
2017-Oct-17 15:00N 36°53' E 012°19'712.4
2017-Oct-17 14:27N 36°57' E 012°11'13912.4
2017-Oct-17 03:15N 37°44' E 009°28'27812.0
2017-Oct-16 04:07N 37°32' E 003°37'211.5
2017-Oct-16 03:59N 37°32' E 003°35'2011.5
2017-Oct-16 02:15N 37°27' E 003°11'311.3
2017-Oct-16 02:00N 37°26' E 003°07'611.2
2017-Oct-16 01:29N 37°25' E 003°00'711.2
2017-Oct-16 00:54N 37°23' E 002°52'511.4
2017-Oct-16 00:30N 37°23' E 002°46'611.3
2017-Oct-16 00:00N 37°21' E 002°40'7211.1
2017-Oct-15 17:32N 37°04' E 001°12'011.2
2017-Oct-15 17:30N 37°04' E 001°12'1710.9
2017-Oct-15 15:56N 36°59' E 000°51'1511.0
2017-Oct-15 14:36N 36°56' E 000°33'810.8
2017-Oct-15 13:50N 36°53' E 000°23'4711.2
2017-Oct-15 09:37N 36°34' W 000°31'111.3
2017-Oct-15 09:30N 36°34' W 000°32'611.3
2017-Oct-15 08:58N 36°31' W 000°39'511.2
2017-Oct-15 08:30N 36°29' W 000°45'1211.3
2017-Oct-15 07:28N 36°25' W 000°59'711.6
2017-Oct-15 06:52N 36°23' W 001°07'411.7
2017-Oct-15 06:30N 36°21' W 001°12'611.7
2017-Oct-15 06:00N 36°18' W 001°18'611.7
2017-Oct-15 05:29N 36°16' W 001°25'611.6
2017-Oct-15 04:55N 36°14' W 001°33'511.6
2017-Oct-15 04:30N 36°13' W 001°39'811.7
2017-Oct-15 03:48N 36°13' W 001°49'15711.9
2017-Oct-14 14:41N 36°03' W 005°02'212.8
2017-Oct-14 14:30N 36°03' W 005°05'612.6
2017-Oct-14 14:00N 36°03' W 005°13'611.8
2017-Oct-14 13:30N 36°04' W 005°20'4 7.1
2017-Oct-14 13:00N 36°07' W 005°23'1 0.2
2017-Oct-14 10:05N 36°07' W 005°22'0 0.1
2017-Oct-14 09:59N 36°07' W 005°22'0 0.2
2017-Oct-14 09:29N 36°07' W 005°22'0 0.0
2017-Oct-14 08:59N 36°07' W 005°22'0 0.0
2017-Oct-14 07:02N 36°07' W 005°22'0 0.5
2017-Oct-14 06:47N 36°07' W 005°22'0 0.1
2017-Oct-14 04:44N 36°07' W 005°22'0 0.0
2017-Oct-14 04:26N 36°07' W 005°22'0 0.0
2017-Oct-14 03:44N 36°07' W 005°22'0 0.1
2017-Oct-14 03:17N 36°07' W 005°22'0 0.1
2017-Oct-14 02:53N 36°07' W 005°22'0 0.1
2017-Oct-14 02:23N 36°07' W 005°22'0 0.1
2017-Oct-14 01:59N 36°07' W 005°22'0 0.0
2017-Oct-14 01:26N 36°07' W 005°22'0 0.0
2017-Oct-14 00:59N 36°07' W 005°22'0 0.0
2017-Oct-14 00:17N 36°07' W 005°22'0 0.0
2017-Oct-13 23:14N 36°07' W 005°22'0 0.2
2017-Oct-13 22:53N 36°07' W 005°22'0 1.1
2017-Oct-13 22:30N 36°06' W 005°22'2 3.7
2017-Oct-13 22:00N 36°05' W 005°20'2 3.9
2017-Oct-13 21:29N 36°05' W 005°18'1 3.1
2017-Oct-13 21:00N 36°05' W 005°16'1 1.5
2017-Oct-13 20:30N 36°06' W 005°15'2 4.2
2017-Oct-13 20:00N 36°06' W 005°13'3 4.3
2017-Oct-13 19:18N 36°06' W 005°09'412.1
2017-Oct-13 19:00N 36°04' W 005°12'612.5
2017-Oct-13 18:30N 35°60' W 005°18'612.6
2017-Oct-13 18:00N 35°58' W 005°26'1611.5
2017-Oct-13 16:37N 35°55' W 005°45'410.8
2017-Oct-13 16:16N 35°54' W 005°49'5212.0
2017-Oct-13 11:55N 35°54' W 006°54'511.6
2017-Oct-13 11:30N 35°53' W 007°00'611.4
2017-Oct-13 11:00N 35°53' W 007°07'611.7
2017-Oct-13 10:28N 35°53' W 007°15'612.3
2017-Oct-13 10:00N 35°53' W 007°22'611.9
2017-Oct-13 09:30N 35°52' W 007°29'812.0
2017-Oct-13 08:52N 35°51' W 007°38'1811.4
2017-Oct-13 07:15N 35°53' W 008°01'411.3
2017-Oct-13 06:56N 35°53' W 008°05'811.4
2017-Oct-13 06:15N 35°53' W 008°15'411.8
2017-Oct-13 05:56N 35°53' W 008°20'711.9
2017-Oct-13 05:22N 35°53' W 008°28'712.1
2017-Oct-13 04:46N 35°52' W 008°37'311.5
2017-Oct-13 04:28N 35°52' W 008°41'611.8
2017-Oct-13 04:00N 35°52' W 008°48'712.0
2017-Oct-13 03:25N 35°52' W 008°57'611.8
2017-Oct-13 02:52N 35°52' W 009°05'611.9
2017-Oct-13 02:24N 35°52' W 009°12'612.3
2017-Oct-13 01:55N 35°52' W 009°19'512.2
2017-Oct-13 01:29N 35°51' W 009°25'1511.7
2017-Oct-13 00:10N 35°50' W 009°44'212.0
2017-Oct-13 00:00N 35°51' W 009°47'3511.7
2017-Oct-12 21:02N 35°50' W 010°30'30812.0
2017-Oct-11 19:26N 37°28' W 016°33'911.7
2017-Oct-11 18:41N 37°31' W 016°44'811.5
2017-Oct-11 17:57N 37°34' W 016°54'611.5
2017-Oct-11 17:24N 37°36' W 017°02'511.6
2017-Oct-11 17:00N 37°37' W 017°07'54911.9
2017-Oct-09 18:43N 39°43' W 028°31'1112.1
2017-Oct-09 17:50N 39°47' W 028°45'8911.9
2017-Oct-09 10:21N 39°54' W 030°40'411.7
2017-Oct-09 10:00N 39°55' W 030°46'611.7
2017-Oct-09 09:30N 39°56' W 030°53'712.0
2017-Oct-09 08:57N 39°58' W 031°01'613.1
2017-Oct-09 08:31N 39°59' W 031°09'612.0
2017-Oct-09 08:00N 39°59' W 031°17'611.9
2017-Oct-09 07:30N 39°59' W 031°24'712.3
2017-Oct-09 06:54N 39°59' W 031°34'512.3
2017-Oct-09 06:31N 39°60' W 031°40'  

Dump ship's entire track history